sensor_id;sensor_type;location;lat;lon;timestamp;pressure;altitude;pressure_sealevel;temperature
85122;BMP280;75480;52.260;20.916;2024-02-15T00:00:30;100833.47;;;7.42
85122;BMP280;75480;52.260;20.916;2024-02-15T00:02:20;100830.75;;;7.42
85122;BMP280;75480;52.260;20.916;2024-02-15T00:03:51;100830.59;;;7.46
85122;BMP280;75480;52.260;20.916;2024-02-15T00:05:22;100837.31;;;7.45
85122;BMP280;75480;52.260;20.916;2024-02-15T00:06:52;100829.25;;;7.50
85122;BMP280;75480;52.260;20.916;2024-02-15T00:08:23;100829.47;;;7.56
85122;BMP280;75480;52.260;20.916;2024-02-15T00:09:55;100829.59;;;7.53
85122;BMP280;75480;52.260;20.916;2024-02-15T00:11:25;100823.44;;;7.48
85122;BMP280;75480;52.260;20.916;2024-02-15T00:12:56;100828.81;;;7.52
85122;BMP280;75480;52.260;20.916;2024-02-15T00:14:27;100829.59;;;7.53
85122;BMP280;75480;52.260;20.916;2024-02-15T00:15:58;100829.59;;;7.53
85122;BMP280;75480;52.260;20.916;2024-02-15T00:17:29;100820.63;;;7.39
85122;BMP280;75480;52.260;20.916;2024-02-15T00:19:01;100828.00;;;7.42
85122;BMP280;75480;52.260;20.916;2024-02-15T00:20:32;100825.41;;;7.26
85122;BMP280;75480;52.260;20.916;2024-02-15T00:22:04;100825.03;;;7.37
85122;BMP280;75480;52.260;20.916;2024-02-15T00:23:35;100830.06;;;7.38
85122;BMP280;75480;52.260;20.916;2024-02-15T00:25:06;100821.34;;;7.31
85122;BMP280;75480;52.260;20.916;2024-02-15T00:26:36;100826.00;;;7.43
85122;BMP280;75480;52.260;20.916;2024-02-15T00:28:07;100836.22;;;7.42
85122;BMP280;75480;52.260;20.916;2024-02-15T00:29:38;100825.09;;;7.46
85122;BMP280;75480;52.260;20.916;2024-02-15T00:31:10;100835.16;;;7.49
85122;BMP280;75480;52.260;20.916;2024-02-15T00:32:41;100839.56;;;7.46
85122;BMP280;75480;52.260;20.916;2024-02-15T00:34:12;100833.84;;;7.54
85122;BMP280;75480;52.260;20.916;2024-02-15T00:35:42;100835.22;;;7.58
85122;BMP280;75480;52.260;20.916;2024-02-15T00:37:13;100830.97;;;7.57
85122;BMP280;75480;52.260;20.916;2024-02-15T00:38:44;100832.00;;;7.50
85122;BMP280;75480;52.260;20.916;2024-02-15T00:40:15;100830.91;;;7.48
85122;BMP280;75480;52.260;20.916;2024-02-15T00:41:46;100838.72;;;7.49
85122;BMP280;75480;52.260;20.916;2024-02-15T00:43:17;100834.31;;;7.52
85122;BMP280;75480;52.260;20.916;2024-02-15T00:44:48;100829.31;;;7.38
85122;BMP280;75480;52.260;20.916;2024-02-15T00:46:19;100832.06;;;7.38
85122;BMP280;75480;52.260;20.916;2024-02-15T00:47:50;100832.19;;;7.34
85122;BMP280;75480;52.260;20.916;2024-02-15T00:49:20;100831.22;;;7.28
85122;BMP280;75480;52.260;20.916;2024-02-15T00:50:51;100822.34;;;7.24
85122;BMP280;75480;52.260;20.916;2024-02-15T00:52:22;100826.50;;;7.29
85122;BMP280;75480;52.260;20.916;2024-02-15T00:53:53;100830.47;;;7.28
85122;BMP280;75480;52.260;20.916;2024-02-15T00:55:24;100828.66;;;7.34
85122;BMP280;75480;52.260;20.916;2024-02-15T00:56:55;100836.00;;;7.37
85122;BMP280;75480;52.260;20.916;2024-02-15T00:58:26;100831.50;;;7.43
85122;BMP280;75480;52.260;20.916;2024-02-15T00:59:57;100829.75;;;7.36
85122;BMP280;75480;52.260;20.916;2024-02-15T01:01:28;100826.47;;;7.41
85122;BMP280;75480;52.260;20.916;2024-02-15T01:02:59;100835.31;;;7.45
85122;BMP280;75480;52.260;20.916;2024-02-15T01:04:30;100819.56;;;7.37
85122;BMP280;75480;52.260;20.916;2024-02-15T01:06:01;100820.16;;;7.32
85122;BMP280;75480;52.260;20.916;2024-02-15T01:07:32;100825.94;;;7.34
85122;BMP280;75480;52.260;20.916;2024-02-15T01:09:03;100821.78;;;7.29
85122;BMP280;75480;52.260;20.916;2024-02-15T01:10:34;100827.47;;;7.35
85122;BMP280;75480;52.260;20.916;2024-02-15T01:12:07;100828.66;;;7.34
85122;BMP280;75480;52.260;20.916;2024-02-15T01:13:38;100816.66;;;7.31
85122;BMP280;75480;52.260;20.916;2024-02-15T01:15:09;100820.56;;;7.30
85122;BMP280;75480;52.260;20.916;2024-02-15T01:16:40;100824.88;;;7.31
85122;BMP280;75480;52.260;20.916;2024-02-15T01:18:10;100824.59;;;7.38
85122;BMP280;75480;52.260;20.916;2024-02-15T01:19:41;100828.53;;;7.37
85122;BMP280;75480;52.260;20.916;2024-02-15T01:21:12;100823.81;;;7.38
85122;BMP280;75480;52.260;20.916;2024-02-15T01:22:43;100823.44;;;7.48
85122;BMP280;75480;52.260;20.916;2024-02-15T01:24:14;100833.47;;;7.42
85122;BMP280;75480;52.260;20.916;2024-02-15T01:25:45;100819.47;;;7.28
85122;BMP280;75480;52.260;20.916;2024-02-15T01:27:16;100820.00;;;7.35
85122;BMP280;75480;52.260;20.916;2024-02-15T01:28:47;100819.78;;;7.42
85122;BMP280;75480;52.260;20.916;2024-02-15T01:30:18;100822.22;;;7.28
85122;BMP280;75480;52.260;20.916;2024-02-15T01:31:49;100818.22;;;7.19
85122;BMP280;75480;52.260;20.916;2024-02-15T01:33:20;100810.38;;;7.09
85122;BMP280;75480;52.260;20.916;2024-02-15T01:34:51;100822.94;;;7.19
85122;BMP280;75480;52.260;20.916;2024-02-15T01:36:24;100818.22;;;7.19
85122;BMP280;75480;52.260;20.916;2024-02-15T01:37:55;100814.25;;;7.21
85122;BMP280;75480;52.260;20.916;2024-02-15T01:39:25;100817.44;;;7.19
85122;BMP280;75480;52.260;20.916;2024-02-15T01:40:56;100816.44;;;7.26
85122;BMP280;75480;52.260;20.916;2024-02-15T01:42:27;100809.22;;;7.19
85122;BMP280;75480;52.260;20.916;2024-02-15T01:43:57;100808.00;;;7.20
85122;BMP280;75480;52.260;20.916;2024-02-15T01:45:28;100803.94;;;7.25
85122;BMP280;75480;52.260;20.916;2024-02-15T01:47:00;100805.22;;;7.33
85122;BMP280;75480;52.260;20.916;2024-02-15T01:48:31;100808.25;;;7.35
85122;BMP280;75480;52.260;20.916;2024-02-15T01:50:02;100805.53;;;7.35
85122;BMP280;75480;52.260;20.916;2024-02-15T01:51:33;100796.66;;;7.31
85122;BMP280;75480;52.260;20.916;2024-02-15T01:53:07;100798.22;;;7.32
85122;BMP280;75480;52.260;20.916;2024-02-15T01:54:39;100797.28;;;7.35
85122;BMP280;75480;52.260;20.916;2024-02-15T01:56:12;100802.53;;;7.42
85122;BMP280;75480;52.260;20.916;2024-02-15T01:57:44;100799.47;;;7.40
85122;BMP280;75480;52.260;20.916;2024-02-15T01:59:16;100795.53;;;7.41
85122;BMP280;75480;52.260;20.916;2024-02-15T02:00:48;100804.53;;;7.41
85122;BMP280;75480;52.260;20.916;2024-02-15T02:02:20;100807.25;;;7.41
85122;BMP280;75480;52.260;20.916;2024-02-15T02:03:53;100798.59;;;7.43
85122;BMP280;75480;52.260;20.916;2024-02-15T02:05:23;100801.06;;;7.50
85122;BMP280;75480;52.260;20.916;2024-02-15T02:06:54;100803.00;;;7.40
85122;BMP280;75480;52.260;20.916;2024-02-15T02:08:29;100807.59;;;7.43
85122;BMP280;75480;52.260;20.916;2024-02-15T02:10:00;100796.00;;;7.48
85122;BMP280;75480;52.260;20.916;2024-02-15T02:11:30;100795.41;;;7.44
85122;BMP280;75480;52.260;20.916;2024-02-15T02:13:01;100793.66;;;7.38
85122;BMP280;75480;52.260;20.916;2024-02-15T02:14:33;100795.41;;;7.44
85122;BMP280;75480;52.260;20.916;2024-02-15T02:16:04;100792.06;;;7.49
85122;BMP280;75480;52.260;20.916;2024-02-15T02:17:35;100796.22;;;7.54
85122;BMP280;75480;52.260;20.916;2024-02-15T02:19:05;100803.16;;;7.46
85122;BMP280;75480;52.260;20.916;2024-02-15T02:20:39;100792.50;;;7.48
85122;BMP280;75480;52.260;20.916;2024-02-15T02:22:10;100799.81;;;7.42
85122;BMP280;75480;52.260;20.916;2024-02-15T02:23:42;100802.19;;;7.40
85122;BMP280;75480;52.260;20.916;2024-02-15T02:25:13;100793.09;;;7.43
85122;BMP280;75480;52.260;20.916;2024-02-15T02:26:44;100805.00;;;7.49
85122;BMP280;75480;52.260;20.916;2024-02-15T02:28:15;100791.63;;;7.51
85122;BMP280;75480;52.260;20.916;2024-02-15T02:29:47;100793.78;;;7.56
85122;BMP280;75480;52.260;20.916;2024-02-15T02:31:17;100793.03;;;7.56
85122;BMP280;75480;52.260;20.916;2024-02-15T02:32:48;100790.38;;;7.43
85122;BMP280;75480;52.260;20.916;2024-02-15T02:34:19;100791.56;;;7.42
85122;BMP280;75480;52.260;20.916;2024-02-15T02:35:50;100790.81;;;7.41
85122;BMP280;75480;52.260;20.916;2024-02-15T02:37:20;100791.56;;;7.42
85122;BMP280;75480;52.260;20.916;2024-02-15T02:38:51;100797.56;;;7.49
85122;BMP280;75480;52.260;20.916;2024-02-15T02:40:22;100800.88;;;7.44
85122;BMP280;75480;52.260;20.916;2024-02-15T02:41:53;100793.88;;;7.43
85122;BMP280;75480;52.260;20.916;2024-02-15T02:43:23;100793.09;;;7.43
85122;BMP280;75480;52.260;20.916;2024-02-15T02:44:54;100794.88;;;7.37
85122;BMP280;75480;52.260;20.916;2024-02-15T02:46:25;100794.88;;;7.37
85122;BMP280;75480;52.260;20.916;2024-02-15T02:47:56;100795.88;;;7.30
85122;BMP280;75480;52.260;20.916;2024-02-15T02:49:26;100796.53;;;7.34
85122;BMP280;75480;52.260;20.916;2024-02-15T02:50:57;100795.19;;;7.39
85122;BMP280;75480;52.260;20.916;2024-02-15T02:52:28;100791.22;;;7.40
85122;BMP280;75480;52.260;20.916;2024-02-15T02:53:59;100795.94;;;7.39
85122;BMP280;75480;52.260;20.916;2024-02-15T02:55:29;100794.31;;;7.42
85122;BMP280;75480;52.260;20.916;2024-02-15T02:57:01;100789.91;;;7.44
85122;BMP280;75480;52.260;20.916;2024-02-15T02:58:31;100798.31;;;7.50
85122;BMP280;75480;52.260;20.916;2024-02-15T03:00:03;100793.91;;;7.53
85122;BMP280;75480;52.260;20.916;2024-02-15T03:01:34;100796.22;;;7.54
85122;BMP280;75480;52.260;20.916;2024-02-15T03:03:05;100789.50;;;7.55
85122;BMP280;75480;52.260;20.916;2024-02-15T03:04:36;100804.56;;;7.50
85122;BMP280;75480;52.260;20.916;2024-02-15T03:06:09;100801.78;;;7.41
85122;BMP280;75480;52.260;20.916;2024-02-15T03:07:40;100795.31;;;7.35
85122;BMP280;75480;52.260;20.916;2024-02-15T03:09:14;100804.63;;;7.38
85122;BMP280;75480;52.260;20.916;2024-02-15T03:10:45;100791.97;;;7.31
85122;BMP280;75480;52.260;20.916;2024-02-15T03:12:16;100792.38;;;7.30
85122;BMP280;75480;52.260;20.916;2024-02-15T03:13:48;100797.50;;;7.18
85122;BMP280;75480;52.260;20.916;2024-02-15T03:15:19;100801.22;;;7.12
85122;BMP280;75480;52.260;20.916;2024-02-15T03:16:51;100797.16;;;7.16
85122;BMP280;75480;52.260;20.916;2024-02-15T03:18:21;100802.41;;;7.24
85122;BMP280;75480;52.260;20.916;2024-02-15T03:19:54;100784.41;;;7.23
85122;BMP280;75480;52.260;20.916;2024-02-15T03:21:26;100799.28;;;7.34
85122;BMP280;75480;52.260;20.916;2024-02-15T03:22:57;100801.38;;;7.30
85122;BMP280;75480;52.260;20.916;2024-02-15T03:24:28;100806.72;;;7.34
85122;BMP280;75480;52.260;20.916;2024-02-15T03:26:01;100802.50;;;7.33
85122;BMP280;75480;52.260;20.916;2024-02-15T03:27:32;100805.84;;;7.37
85122;BMP280;75480;52.260;20.916;2024-02-15T03:29:03;100800.25;;;7.40
85122;BMP280;75480;52.260;20.916;2024-02-15T03:30:34;100800.25;;;7.40
85122;BMP280;75480;52.260;20.916;2024-02-15T03:32:05;100794.88;;;7.37
85122;BMP280;75480;52.260;20.916;2024-02-15T03:33:36;100792.50;;;7.26
85122;BMP280;75480;52.260;20.916;2024-02-15T03:35:08;100797.16;;;7.16
85122;BMP280;75480;52.260;20.916;2024-02-15T03:36:38;100799.41;;;7.09
85122;BMP280;75480;52.260;20.916;2024-02-15T03:38:09;100809.38;;;7.03
85122;BMP280;75480;52.260;20.916;2024-02-15T03:39:40;100795.25;;;7.04
85122;BMP280;75480;52.260;20.916;2024-02-15T03:41:10;100796.78;;;7.05
85122;BMP280;75480;52.260;20.916;2024-02-15T03:42:41;100790.25;;;7.12
85122;BMP280;75480;52.260;20.916;2024-02-15T03:44:12;100790.78;;;7.19
85122;BMP280;75480;52.260;20.916;2024-02-15T03:45:43;100793.22;;;7.17
85122;BMP280;75480;52.260;20.916;2024-02-15T03:47:15;100792.63;;;7.23
85122;BMP280;75480;52.260;20.916;2024-02-15T03:48:46;100793.41;;;7.23
85122;BMP280;75480;52.260;20.916;2024-02-15T03:50:16;100796.03;;;7.27
85122;BMP280;75480;52.260;20.916;2024-02-15T03:51:48;100791.31;;;7.27
85122;BMP280;75480;52.260;20.916;2024-02-15T03:53:19;100791.19;;;7.31
85122;BMP280;75480;52.260;20.916;2024-02-15T03:54:50;100793.50;;;7.32
85122;BMP280;75480;52.260;20.916;2024-02-15T03:56:21;100784.78;;;7.34
85122;BMP280;75480;52.260;20.916;2024-02-15T03:57:52;100786.63;;;7.37
85122;BMP280;75480;52.260;20.916;2024-02-15T03:59:25;100784.50;;;7.32
85122;BMP280;75480;52.260;20.916;2024-02-15T04:00:57;100787.53;;;7.34
85122;BMP280;75480;52.260;20.916;2024-02-15T04:02:28;100784.16;;;7.30
85122;BMP280;75480;52.260;20.916;2024-02-15T04:03:59;100787.34;;;7.28
85122;BMP280;75480;52.260;20.916;2024-02-15T04:05:30;100786.13;;;7.29
85122;BMP280;75480;52.260;20.916;2024-02-15T04:07:01;100777.91;;;7.07
85122;BMP280;75480;52.260;20.916;2024-02-15T04:08:31;100783.53;;;7.04
85122;BMP280;75480;52.260;20.916;2024-02-15T04:10:04;100787.97;;;7.10
85122;BMP280;75480;52.260;20.916;2024-02-15T04:11:35;100786.47;;;7.09
85122;BMP280;75480;52.260;20.916;2024-02-15T04:13:08;100787.66;;;7.08
85122;BMP280;75480;52.260;20.916;2024-02-15T04:14:38;100792.00;;;6.97
85122;BMP280;75480;52.260;20.916;2024-02-15T04:16:09;100791.44;;;6.89
85122;BMP280;75480;52.260;20.916;2024-02-15T04:17:40;100783.94;;;7.02
85122;BMP280;75480;52.260;20.916;2024-02-15T04:19:12;100780.28;;;6.96
85122;BMP280;75480;52.260;20.916;2024-02-15T04:20:43;100782.19;;;7.08
85122;BMP280;75480;52.260;20.916;2024-02-15T04:22:16;100791.31;;;7.05
85122;BMP280;75480;52.260;20.916;2024-02-15T04:23:47;100796.88;;;7.02
85122;BMP280;75480;52.260;20.916;2024-02-15T04:25:18;100794.50;;;7.04
85122;BMP280;75480;52.260;20.916;2024-02-15T04:26:50;100790.25;;;7.12
85122;BMP280;75480;52.260;20.916;2024-02-15T04:28:21;100786.97;;;7.17
85122;BMP280;75480;52.260;20.916;2024-02-15T04:29:52;100791.44;;;7.24
85122;BMP280;75480;52.260;20.916;2024-02-15T04:31:23;100789.44;;;7.24
85122;BMP280;75480;52.260;20.916;2024-02-15T04:32:56;100791.63;;;7.29
85122;BMP280;75480;52.260;20.916;2024-02-15T04:34:27;100792.72;;;7.32
85122;BMP280;75480;52.260;20.916;2024-02-15T04:35:58;100793.03;;;7.34
85122;BMP280;75480;52.260;20.916;2024-02-15T04:37:29;100793.22;;;7.39
85122;BMP280;75480;52.260;20.916;2024-02-15T04:39:02;100798.59;;;7.43
85122;BMP280;75480;52.260;20.916;2024-02-15T04:40:34;100796.84;;;7.36
85122;BMP280;75480;52.260;20.916;2024-02-15T04:42:05;100789.38;;;7.37
85122;BMP280;75480;52.260;20.916;2024-02-15T04:43:40;100788.63;;;7.36
85122;BMP280;75480;52.260;20.916;2024-02-15T04:45:11;100797.16;;;7.38
85122;BMP280;75480;52.260;20.916;2024-02-15T04:46:43;100795.47;;;7.32
85122;BMP280;75480;52.260;20.916;2024-02-15T04:48:16;100784.09;;;7.21
85122;BMP280;75480;52.260;20.916;2024-02-15T04:49:49;100795.38;;;7.23
85122;BMP280;75480;52.260;20.916;2024-02-15T04:51:19;100797.56;;;7.28
85122;BMP280;75480;52.260;20.916;2024-02-15T04:52:50;100786.31;;;7.35
85122;BMP280;75480;52.260;20.916;2024-02-15T04:54:21;100785.09;;;7.36
85122;BMP280;75480;52.260;20.916;2024-02-15T04:55:52;100789.38;;;7.37
85122;BMP280;75480;52.260;20.916;2024-02-15T04:57:23;100795.13;;;7.30
85122;BMP280;75480;52.260;20.916;2024-02-15T04:58:53;100793.22;;;7.17
85122;BMP280;75480;52.260;20.916;2024-02-15T05:00:24;100792.00;;;7.18
85122;BMP280;75480;52.260;20.916;2024-02-15T05:01:57;100792.06;;;7.28
85122;BMP280;75480;52.260;20.916;2024-02-15T05:03:28;100794.09;;;7.36
85122;BMP280;75480;52.260;20.916;2024-02-15T05:04:59;100796.25;;;7.32
85122;BMP280;75480;52.260;20.916;2024-02-15T05:06:30;100798.81;;;7.36
85122;BMP280;75480;52.260;20.916;2024-02-15T05:08:02;100796.53;;;7.34
85122;BMP280;75480;52.260;20.916;2024-02-15T05:09:34;100792.84;;;7.28
85122;BMP280;75480;52.260;20.916;2024-02-15T05:11:05;100797.78;;;7.33
85122;BMP280;75480;52.260;20.916;2024-02-15T05:12:39;100800.97;;;7.32
85122;BMP280;75480;52.260;20.916;2024-02-15T05:14:10;100791.13;;;7.22
85122;BMP280;75480;52.260;20.916;2024-02-15T05:15:41;100794.16;;;7.24
85122;BMP280;75480;52.260;20.916;2024-02-15T05:17:12;100798.13;;;7.23
85122;BMP280;75480;52.260;20.916;2024-02-15T05:18:42;100798.44;;;7.25
85122;BMP280;75480;52.260;20.916;2024-02-15T05:20:14;100799.41;;;7.31
85122;BMP280;75480;52.260;20.916;2024-02-15T05:21:46;100791.97;;;7.31
85122;BMP280;75480;52.260;20.916;2024-02-15T05:23:17;100799.13;;;7.38
85122;BMP280;75480;52.260;20.916;2024-02-15T05:24:48;100793.97;;;7.40
85122;BMP280;75480;52.260;20.916;2024-02-15T05:26:19;100806.81;;;7.43
85122;BMP280;75480;52.260;20.916;2024-02-15T05:27:54;100793.22;;;7.39
85122;BMP280;75480;52.260;20.916;2024-02-15T05:29:25;100804.94;;;7.40
85122;BMP280;75480;52.260;20.916;2024-02-15T05:31:10;100802.66;;;7.38
85122;BMP280;75480;52.260;20.916;2024-02-15T05:32:41;100804.19;;;7.39
85122;BMP280;75480;52.260;20.916;2024-02-15T05:34:13;100806.91;;;7.39
85122;BMP280;75480;52.260;20.916;2024-02-15T05:35:44;100798.38;;;7.37
85122;BMP280;75480;52.260;20.916;2024-02-15T05:37:20;100812.16;;;7.46
85122;BMP280;75480;52.260;20.916;2024-02-15T05:38:53;100809.25;;;7.41
85122;BMP280;75480;52.260;20.916;2024-02-15T05:40:23;100802.16;;;7.31
85122;BMP280;75480;52.260;20.916;2024-02-15T05:41:54;100811.78;;;7.35
85122;BMP280;75480;52.260;20.916;2024-02-15T05:43:26;100814.72;;;7.41
85122;BMP280;75480;52.260;20.916;2024-02-15T05:45:27;100816.25;;;7.42
85122;BMP280;75480;52.260;20.916;2024-02-15T05:47:03;100805.34;;;7.29
85122;BMP280;75480;52.260;20.916;2024-02-15T05:48:35;100811.94;;;7.32
85122;BMP280;75480;52.260;20.916;2024-02-15T05:50:07;100813.25;;;7.27
85122;BMP280;75480;52.260;20.916;2024-02-15T05:51:38;100813.56;;;7.29
85122;BMP280;75480;52.260;20.916;2024-02-15T05:53:08;100820.56;;;7.30
85122;BMP280;75480;52.260;20.916;2024-02-15T05:54:39;100826.88;;;7.18
85122;BMP280;75480;52.260;20.916;2024-02-15T05:56:12;100819.28;;;7.22
85122;BMP280;75480;52.260;20.916;2024-02-15T05:57:43;100821.16;;;7.25
85122;BMP280;75480;52.260;20.916;2024-02-15T05:59:14;100824.53;;;7.29
85122;BMP280;75480;52.260;20.916;2024-02-15T06:00:46;100821.16;;;7.25
85122;BMP280;75480;52.260;20.916;2024-02-15T06:02:23;100832.88;;;7.26
85122;BMP280;75480;52.260;20.916;2024-02-15T06:03:54;100827.00;;;7.14
85122;BMP280;75480;52.260;20.916;2024-02-15T06:05:26;100821.78;;;7.07
85122;BMP280;75480;52.260;20.916;2024-02-15T06:06:57;100824.13;;;6.96
85122;BMP280;75480;52.260;20.916;2024-02-15T06:08:31;100834.84;;;6.91
85122;BMP280;75480;52.260;20.916;2024-02-15T06:10:01;100831.44;;;6.99
85122;BMP280;75480;52.260;20.916;2024-02-15T06:11:34;100829.22;;;7.07
85122;BMP280;75480;52.260;20.916;2024-02-15T06:13:04;100833.25;;;7.15
85122;BMP280;75480;52.260;20.916;2024-02-15T06:14:35;100835.31;;;7.24
85122;BMP280;75480;52.260;20.916;2024-02-15T06:16:06;100839.91;;;7.27
85122;BMP280;75480;52.260;20.916;2024-02-15T06:17:40;100833.56;;;7.17
85122;BMP280;75480;52.260;20.916;2024-02-15T06:19:12;100833.91;;;7.19
85122;BMP280;75480;52.260;20.916;2024-02-15T06:20:42;100836.44;;;7.13
85122;BMP280;75480;52.260;20.916;2024-02-15T06:22:15;100836.84;;;7.12
85122;BMP280;75480;52.260;20.916;2024-02-15T06:23:46;100835.16;;;7.05
85122;BMP280;75480;52.260;20.916;2024-02-15T06:25:19;100835.81;;;7.09
85122;BMP280;75480;52.260;20.916;2024-02-15T06:26:51;100847.72;;;7.15
85122;BMP280;75480;52.260;20.916;2024-02-15T06:28:24;100840.19;;;7.07
85122;BMP280;75480;52.260;20.916;2024-02-15T06:30:14;100843.72;;;7.07
85122;BMP280;75480;52.260;20.916;2024-02-15T06:32:03;100838.53;;;7.09
85122;BMP280;75480;52.260;20.916;2024-02-15T06:33:53;100837.00;;;7.08
85122;BMP280;75480;52.260;20.916;2024-02-15T06:35:42;100843.47;;;7.02
85122;BMP280;75480;52.260;20.916;2024-02-15T06:37:40;100844.06;;;6.97
85122;BMP280;75480;52.260;20.916;2024-02-15T06:39:29;100845.13;;;6.99
85122;BMP280;75480;52.260;20.916;2024-02-15T06:41:12;100848.88;;;7.05
85122;BMP280;75480;52.260;20.916;2024-02-15T06:42:43;100841.72;;;7.08
85122;BMP280;75480;52.260;20.916;2024-02-15T06:44:13;100845.34;;;7.05
85122;BMP280;75480;52.260;20.916;2024-02-15T06:45:46;100848.03;;;6.96
85122;BMP280;75480;52.260;20.916;2024-02-15T06:47:17;100845.13;;;6.99
85122;BMP280;75480;52.260;20.916;2024-02-15T06:48:49;100848.19;;;7.01
85122;BMP280;75480;52.260;20.916;2024-02-15T06:50:20;100848.41;;;7.07
85122;BMP280;75480;52.260;20.916;2024-02-15T06:51:51;100852.69;;;7.08
85122;BMP280;75480;52.260;20.916;2024-02-15T06:53:22;100851.47;;;7.09
85122;BMP280;75480;52.260;20.916;2024-02-15T06:54:53;100846.88;;;7.06
85122;BMP280;75480;52.260;20.916;2024-02-15T06:56:24;100848.75;;;7.09
85122;BMP280;75480;52.260;20.916;2024-02-15T06:57:55;100849.03;;;7.11
85122;BMP280;75480;52.260;20.916;2024-02-15T06:59:25;100854.75;;;7.16
85122;BMP280;75480;52.260;20.916;2024-02-15T07:00:56;100849.13;;;7.20
85122;BMP280;75480;52.260;20.916;2024-02-15T07:02:27;100856.06;;;7.12
85122;BMP280;75480;52.260;20.916;2024-02-15T07:03:57;100857.94;;;7.15
85122;BMP280;75480;52.260;20.916;2024-02-15T07:05:28;100864.63;;;7.14
85122;BMP280;75480;52.260;20.916;2024-02-15T07:06:59;100862.19;;;7.16
85122;BMP280;75480;52.260;20.916;2024-02-15T07:08:31;100861.44;;;7.15
85122;BMP280;75480;52.260;20.916;2024-02-15T07:10:02;100865.03;;;7.12
85122;BMP280;75480;52.260;20.916;2024-02-15T07:11:33;100850.84;;;7.05
85122;BMP280;75480;52.260;20.916;2024-02-15T07:13:07;100864.63;;;7.14
85122;BMP280;75480;52.260;20.916;2024-02-15T07:14:38;100866.34;;;7.21
85122;BMP280;75480;52.260;20.916;2024-02-15T07:16:08;100858.53;;;6.97
85122;BMP280;75480;52.260;20.916;2024-02-15T07:17:39;100863.69;;;6.95
85122;BMP280;75480;52.260;20.916;2024-02-15T07:19:10;100858.22;;;6.95
85122;BMP280;75480;52.260;20.916;2024-02-15T07:20:41;100862.69;;;6.89
85122;BMP280;75480;52.260;20.916;2024-02-15T07:22:12;100865.31;;;6.93
85122;BMP280;75480;52.260;20.916;2024-02-15T07:23:43;100872.34;;;6.94
85122;BMP280;75480;52.260;20.916;2024-02-15T07:25:13;100866.44;;;6.95
85122;BMP280;75480;52.260;20.916;2024-02-15T07:26:44;100866.84;;;6.94
85122;BMP280;75480;52.260;20.916;2024-02-15T07:28:15;100869.78;;;6.99
85122;BMP280;75480;52.260;20.916;2024-02-15T07:29:46;100873.19;;;7.03
85122;BMP280;75480;52.260;20.916;2024-02-15T07:31:16;100872.19;;;7.10
85122;BMP280;75480;52.260;20.916;2024-02-15T07:32:47;100866.72;;;7.10
85122;BMP280;75480;52.260;20.916;2024-02-15T07:34:18;100876.81;;;7.00
85122;BMP280;75480;52.260;20.916;2024-02-15T07:35:49;100871.16;;;6.95
85122;BMP280;75480;52.260;20.916;2024-02-15T07:37:23;100861.94;;;6.88
85122;BMP280;75480;52.260;20.916;2024-02-15T07:38:56;100865.00;;;6.91
85122;BMP280;75480;52.260;20.916;2024-02-15T07:40:31;100867.66;;;6.81
85122;BMP280;75480;52.260;20.916;2024-02-15T07:42:01;100871.69;;;6.90
85122;BMP280;75480;52.260;20.916;2024-02-15T07:43:35;100866.97;;;6.90
85122;BMP280;75480;52.260;20.916;2024-02-15T07:45:06;100873.44;;;6.96
85122;BMP280;75480;52.260;20.916;2024-02-15T07:46:37;100867.81;;;7.00
85122;BMP280;75480;52.260;20.916;2024-02-15T07:48:09;100868.63;;;6.75
85122;BMP280;75480;52.260;20.916;2024-02-15T07:49:41;100865.88;;;6.75
85122;BMP280;75480;52.260;20.916;2024-02-15T07:51:16;100866.78;;;6.84
85122;BMP280;75480;52.260;20.916;2024-02-15T07:52:49;100851.41;;;6.74
85122;BMP280;75480;52.260;20.916;2024-02-15T07:54:20;100860.53;;;6.84
85122;BMP280;75480;52.260;20.916;2024-02-15T07:55:53;100854.47;;;6.89
85122;BMP280;75480;52.260;20.916;2024-02-15T07:57:24;100850.75;;;6.96
85122;BMP280;75480;52.260;20.916;2024-02-15T07:58:55;100858.31;;;7.04
85122;BMP280;75480;52.260;20.916;2024-02-15T08:00:26;100857.44;;;6.95
85122;BMP280;75480;52.260;20.916;2024-02-15T08:01:58;100858.44;;;6.88
85122;BMP280;75480;52.260;20.916;2024-02-15T08:03:29;100855.81;;;6.84
85122;BMP280;75480;52.260;20.916;2024-02-15T08:05:00;100862.00;;;6.98
85122;BMP280;75480;52.260;20.916;2024-02-15T08:06:35;100860.81;;;6.99
85122;BMP280;75480;52.260;20.916;2024-02-15T08:08:07;100867.94;;;7.09
85122;BMP280;75480;52.260;20.916;2024-02-15T08:09:37;100866.91;;;7.15
85122;BMP280;75480;52.260;20.916;2024-02-15T08:11:08;100861.91;;;7.01
85122;BMP280;75480;52.260;20.916;2024-02-15T08:12:46;100861.91;;;7.01
85122;BMP280;75480;52.260;20.916;2024-02-15T08:14:16;100863.06;;;6.78
85122;BMP280;75480;52.260;20.916;2024-02-15T08:15:47;100869.94;;;6.83
85122;BMP280;75480;52.260;20.916;2024-02-15T08:17:21;100855.47;;;6.95
85122;BMP280;75480;52.260;20.916;2024-02-15T08:18:52;100866.66;;;6.88
85122;BMP280;75480;52.260;20.916;2024-02-15T08:20:25;100865.75;;;6.91
85122;BMP280;75480;52.260;20.916;2024-02-15T08:21:56;100870.16;;;6.88
85122;BMP280;75480;52.260;20.916;2024-02-15T08:23:26;100865.75;;;6.91
85122;BMP280;75480;52.260;20.916;2024-02-15T08:24:58;100868.19;;;6.89
85122;BMP280;75480;52.260;20.916;2024-02-15T08:26:28;100858.56;;;6.84
85122;BMP280;75480;52.260;20.916;2024-02-15T08:28:00;100868.81;;;6.93
85122;BMP280;75480;52.260;20.916;2024-02-15T08:29:35;100868.75;;;6.84
85122;BMP280;75480;52.260;20.916;2024-02-15T08:31:06;100864.78;;;6.85
85122;BMP280;75480;52.260;20.916;2024-02-15T08:32:39;100866.75;;;6.97
85122;BMP280;75480;52.260;20.916;2024-02-15T08:34:10;100875.06;;;7.06
85122;BMP280;75480;52.260;20.916;2024-02-15T08:35:44;100874.84;;;7.01
85122;BMP280;75480;52.260;20.916;2024-02-15T08:37:15;100871.00;;;6.98
85122;BMP280;75480;52.260;20.916;2024-02-15T08:38:45;100876.91;;;7.09
85122;BMP280;75480;52.260;20.916;2024-02-15T08:40:17;100874.56;;;7.21
85122;BMP280;75480;52.260;20.916;2024-02-15T08:41:50;100871.91;;;7.30